Time;durP1;ratioP1;P1;durP2;ratioP2;P2;SDS_P1;SDS_P2;PMS_P1;PMS_P2;Temp;Humidity;BMP_temperature;BMP_pressure;BME280_temperature;BME280_humidity;BME280_pressure;Samples;Min_cycle;Max_cycle;Signal;HPM_P1;HPM_P2
2022/05/11 00:00:12;;;;;;;7.07;6.47;;;;;;;20.19;58.99;100392.00;4992956;28;20496;-73
2022/05/11 00:02:38;;;;;;;7.32;6.68;;;;;;;20.16;58.92;100389.03;4992358;28;20405;-73
2022/05/11 00:05:10;;;;;;;6.93;6.43;;;;;;;20.10;59.31;100387.53;4993955;28;20390;-74
2022/05/11 00:07:35;;;;;;;6.97;6.47;;;;;;;20.04;59.48;100383.28;4993700;28;20962;-74
2022/05/11 00:10:02;;;;;;;7.57;6.87;;;;;;;19.97;59.55;100382.88;4991398;28;20422;-74
2022/05/11 00:12:27;;;;;;;7.20;6.70;;;;;;;19.91;59.61;100384.94;4992410;28;20414;-73
2022/05/11 00:14:53;;;;;;;6.83;6.33;;;;;;;19.87;59.70;100385.84;4993495;28;20406;-74
2022/05/11 00:17:18;;;;;;;7.07;6.53;;;;;;;19.84;59.83;100376.28;4993487;28;20397;-74
2022/05/11 00:19:44;;;;;;;9.33;7.23;;;;;;;19.80;60.08;100378.00;4992304;28;20549;-73
2022/05/11 00:22:09;;;;;;;7.63;7.03;;;;;;;19.77;59.99;100380.56;4993374;28;20449;-73
2022/05/11 00:24:35;;;;;;;6.53;6.00;;;;;;;19.73;60.21;100380.38;4993162;28;20820;-73
2022/05/11 00:27:02;;;;;;;6.95;6.30;;;;;;;19.69;60.47;100377.41;4993198;28;20398;-73
2022/05/11 00:29:27;;;;;;;7.30;6.80;;;;;;;19.66;60.38;100374.47;4992490;28;20391;-74
2022/05/11 00:31:53;;;;;;;8.03;5.90;;;;;;;19.63;60.38;100381.38;4992936;28;20403;-74
2022/05/11 00:34:19;;;;;;;6.70;6.10;;;;;;;19.60;60.62;100382.00;4991760;28;20419;-73
2022/05/11 00:36:45;;;;;;;6.68;6.07;;;;;;;19.58;60.57;100373.25;4993273;28;20394;-73
2022/05/11 00:39:10;;;;;;;7.30;6.60;;;;;;;19.55;60.58;100373.88;4993122;28;20742;-73
2022/05/11 00:41:39;;;;;;;6.57;6.15;;;;;;;19.56;60.63;100374.69;4991922;28;20939;-73
2022/05/11 00:44:09;;;;;;;7.15;6.50;;;;;;;19.55;60.69;100370.31;4993316;28;20423;-73
2022/05/11 00:46:42;;;;;;;6.80;6.20;;;;;;;19.54;60.63;100361.25;4992835;28;20401;-73
2022/05/11 00:52:00;;;;;;;6.35;5.85;;;;;;;19.51;60.24;100361.03;4989432;28;20412;-73
2022/05/11 00:54:27;;;;;;;7.05;6.35;;;;;;;19.48;60.16;100367.16;4992186;28;20421;-73
2022/05/11 00:57:00;;;;;;;6.75;6.07;;;;;;;19.44;60.04;100360.63;4992865;28;20395;-73
2022/05/11 00:59:34;;;;;;;8.75;7.13;;;;;;;19.44;59.71;100360.63;4992760;28;20482;-73
2022/05/11 01:02:06;;;;;;;7.30;6.60;;;;;;;19.45;60.09;100365.03;4991384;28;21051;-73
2022/05/11 01:04:35;;;;;;;8.77;6.50;;;;;;;19.41;60.11;100358.50;4983459;28;20892;-73
2022/05/11 01:07:01;;;;;;;7.88;6.93;;;;;;;19.36;60.19;100359.41;4992865;28;20403;-73
2022/05/11 01:09:26;;;;;;;7.03;6.32;;;;;;;19.37;60.29;100357.44;4992770;28;20445;-73
2022/05/11 01:11:55;;;;;;;7.10;6.40;;;;;;;19.35;60.39;100352.28;4989919;28;20481;-73
2022/05/11 01:14:24;;;;;;;7.07;6.38;;;;;;;19.32;60.47;100358.38;4992643;28;20431;-73
2022/05/11 01:16:49;;;;;;;7.15;6.60;;;;;;;19.30;60.45;100351.56;4992111;28;20395;-73
2022/05/11 01:19:24;;;;;;;6.68;6.18;;;;;;;19.22;60.60;100352.25;4992724;28;20932;-73
2022/05/11 01:21:55;;;;;;;6.30;5.80;;;;;;;19.20;60.50;100354.50;4990874;28;20509;-73
2022/05/11 01:24:39;;;;;;;7.30;6.63;;;;;;;19.18;60.65;100347.38;4992491;28;20925;-73
2022/05/11 01:27:24;;;;;;;10.63;6.15;;;;;;;19.18;60.63;100350.13;4991151;28;20906;-73
2022/05/11 01:29:50;;;;;;;6.33;5.90;;;;;;;19.17;60.63;100356.72;4992589;28;20391;-73
2022/05/11 01:32:15;;;;;;;5.65;5.30;;;;;;;19.15;60.46;100345.25;4990067;28;20415;-73
2022/05/11 01:34:41;;;;;;;6.27;5.43;;;;;;;19.14;60.61;100343.59;4992210;28;20494;-73
2022/05/11 01:37:06;;;;;;;6.50;5.97;;;;;;;19.12;60.31;100342.28;4992088;28;20426;-73
2022/05/11 01:39:31;;;;;;;6.00;5.40;;;;;;;19.10;60.46;100350.00;4991271;28;20413;-74
2022/05/11 01:41:57;;;;;;;6.10;5.50;;;;;;;19.08;60.01;100341.25;4990795;28;20461;-73
2022/05/11 01:44:22;;;;;;;5.97;5.47;;;;;;;19.05;60.23;100339.94;4994781;28;20903;-73
2022/05/11 01:46:53;;;;;;;5.70;5.30;;;;;;;19.05;60.07;100344.63;4998696;28;20429;-73
2022/05/11 01:49:20;;;;;;;5.68;5.10;;;;;;;19.03;60.21;100341.38;4996203;28;20840;-73
2022/05/11 01:51:45;;;;;;;5.80;5.40;;;;;;;18.95;60.48;100340.13;4998634;28;20398;-73
2022/05/11 01:54:11;;;;;;;5.85;5.35;;;;;;;18.92;60.57;100337.19;4998693;28;20401;-73
2022/05/11 01:56:37;;;;;;;5.80;5.30;;;;;;;18.88;60.68;100334.22;4998267;28;20407;-73
2022/05/11 01:59:02;;;;;;;5.57;5.18;;;;;;;18.86;60.63;100333.72;4998866;28;20394;-73
2022/05/11 02:01:29;;;;;;;6.07;5.53;;;;;;;18.86;60.74;100341.13;4997577;28;20418;-73
2022/05/11 02:03:56;;;;;;;5.47;5.07;;;;;;;18.83;60.47;100333.50;4998745;28;20402;-73
2022/05/11 02:09:06;;;;;;;5.82;5.45;;;;;;;18.78;60.62;100334.41;4998556;28;20410;-73
2022/05/11 02:11:32;;;;;;;6.03;5.50;;;;;;;18.75;60.62;100329.53;4996529;28;21059;-73
2022/05/11 02:13:58;;;;;;;6.80;5.68;;;;;;;18.76;60.48;100330.34;4998641;28;20502;-73
2022/05/11 02:16:24;;;;;;;5.72;5.28;;;;;;;18.79;60.30;100329.72;4998166;28;20493;-73
2022/05/11 02:18:49;;;;;;;6.50;6.05;;;;;;;18.83;59.98;100328.00;4997434;28;20413;-73
2022/05/11 02:21:15;;;;;;;6.27;5.67;;;;;;;18.87;59.92;100329.03;4997228;28;20920;-73
2022/05/11 02:23:40;;;;;;;6.43;5.90;;;;;;;18.84;59.70;100319.47;4998366;28;20397;-74
2022/05/11 02:26:09;;;;;;;6.20;5.60;;;;;;;18.78;60.25;100328.09;4998652;28;20413;-73
2022/05/11 02:28:34;;;;;;;5.57;5.27;;;;;;;18.73;60.33;100326.28;4998300;28;20406;-73
2022/05/11 02:31:00;;;;;;;5.53;5.22;;;;;;;18.67;60.55;100322.78;4997067;28;20418;-73
2022/05/11 02:33:26;;;;;;;8.20;6.40;;;;;;;18.66;60.44;100325.84;4998306;28;20801;-73
2022/05/11 02:35:52;;;;;;;6.25;5.70;;;;;;;18.65;60.35;100325.03;4998266;28;20615;-73
2022/05/11 02:38:23;;;;;;;6.22;5.72;;;;;;;18.62;60.54;100327.56;4998011;28;20410;-73
2022/05/11 02:40:49;;;;;;;6.38;5.88;;;;;;;18.58;60.83;100330.09;4997320;28;20503;-73
2022/05/11 02:43:15;;;;;;;6.13;5.63;;;;;;;18.52;60.99;100327.72;4998365;28;20523;-73
2022/05/11 02:45:41;;;;;;;6.40;5.80;;;;;;;18.48;61.13;100335.72;4994943;28;20890;-73
2022/05/11 02:48:09;;;;;;;6.70;5.97;;;;;;;18.44;61.37;100329.19;4998365;28;20397;-73
2022/05/11 02:50:38;;;;;;;6.68;6.05;;;;;;;18.41;61.49;100332.53;4996588;28;20430;-73
2022/05/11 02:53:07;;;;;;;6.28;5.75;;;;;;;18.40;61.47;100327.34;4998163;28;20835;-74
2022/05/11 02:55:41;;;;;;;8.10;6.83;;;;;;;18.38;61.47;100329.56;4996555;28;20393;-73
2022/05/11 02:58:07;;;;;;;9.00;8.30;;;;;;;18.38;61.21;100335.88;4994990;28;20401;-73
2022/05/11 03:00:34;;;;;;;7.85;6.80;;;;;;;18.37;61.40;100325.22;4993960;28;20421;-73
2022/05/11 03:03:01;;;;;;;6.88;6.22;;;;;;;18.33;61.55;100332.41;4994870;28;20493;-73
2022/05/11 03:05:26;;;;;;;7.38;6.75;;;;;;;18.31;61.55;100327.22;4994838;28;20401;-73
2022/05/11 03:07:52;;;;;;;8.03;6.67;;;;;;;18.37;61.41;100330.72;4994950;28;20399;-73
2022/05/11 03:10:17;;;;;;;6.90;6.33;;;;;;;18.26;61.35;100330.06;4992305;28;20410;-73
2022/05/11 03:12:42;;;;;;;6.85;6.25;;;;;;;18.23;61.77;100330.66;4993359;28;20777;-73
2022/05/11 03:15:09;;;;;;;8.60;6.87;;;;;;;18.23;61.71;100321.59;4994531;28;20450;-73
2022/05/11 03:17:35;;;;;;;7.78;6.55;;;;;;;18.18;61.77;100327.19;4994556;28;20404;-73
2022/05/11 03:20:01;;;;;;;6.80;6.20;;;;;;;18.12;61.84;100324.50;4993706;28;20497;-73
2022/05/11 03:22:27;;;;;;;7.07;6.47;;;;;;;18.13;62.03;100320.66;4994805;28;20445;-73
2022/05/11 03:24:52;;;;;;;6.87;6.27;;;;;;;18.12;62.11;100320.94;4994694;28;20394;-73
2022/05/11 03:27:18;;;;;;;7.40;6.80;;;;;;;18.12;62.02;100321.75;4994351;28;20758;-73
2022/05/11 03:29:44;;;;;;;6.80;6.30;;;;;;;18.14;62.04;100321.47;4993629;28;20417;-73
2022/05/11 03:34:53;;;;;;;6.50;6.03;;;;;;;18.10;61.91;100317.69;4994628;28;20401;-73
2022/05/11 03:37:19;;;;;;;7.73;7.03;;;;;;;18.08;61.55;100319.91;4994007;28;20885;-73
2022/05/11 03:39:45;;;;;;;7.38;6.78;;;;;;;17.99;62.14;100311.53;4991536;28;20820;-73
2022/05/11 03:42:13;;;;;;;6.73;6.23;;;;;;;17.96;62.24;100312.13;4994137;28;20449;-73
2022/05/11 03:44:39;;;;;;;42.67;8.48;;;;;;;17.98;62.36;100304.41;4993993;28;20401;-73
2022/05/11 03:47:04;;;;;;;15.63;6.93;;;;;;;17.92;62.31;100311.09;4994023;28;20481;-73
2022/05/11 03:49:30;;;;;;;8.27;6.57;;;;;;;17.92;62.29;100307.53;4993300;28;20461;-73
2022/05/11 03:51:56;;;;;;;9.43;7.13;;;;;;;17.87;62.54;100313.94;4992637;28;20788;-73
2022/05/11 03:54:21;;;;;;;6.93;6.22;;;;;;;17.85;62.78;100310.66;4993742;28;20422;-73
2022/05/11 03:56:47;;;;;;;7.00;6.50;;;;;;;17.83;62.82;100318.38;4993913;28;20434;-73
2022/05/11 03:59:12;;;;;;;8.00;6.83;;;;;;;17.77;62.94;100316.00;4992760;28;23176;-73
2022/05/11 04:01:38;;;;;;;6.70;6.20;;;;;;;17.74;62.95;100316.59;4993726;28;20880;-73
2022/05/11 04:04:04;;;;;;;7.25;6.57;;;;;;;17.71;63.13;100318.00;4993705;28;20469;-74
2022/05/11 04:06:29;;;;;;;7.63;6.93;;;;;;;17.69;63.28;100306.50;4993607;28;20387;-73
2022/05/11 04:08:55;;;;;;;7.28;6.68;;;;;;;17.73;63.33;100312.19;4993376;28;20874;-73
2022/05/11 04:11:22;;;;;;;9.37;8.57;;;;;;;17.77;63.16;100314.06;4991281;28;20399;-73
2022/05/11 04:13:48;;;;;;;7.75;7.03;;;;;;;17.79;63.12;100308.28;4993530;28;20545;-73
2022/05/11 04:16:15;;;;;;;7.30;6.70;;;;;;;17.73;63.12;100317.69;4993329;28;20746;-73
2022/05/11 04:18:40;;;;;;;6.47;6.07;;;;;;;17.71;63.41;100309.78;4993783;28;20808;-73
2022/05/11 04:21:07;;;;;;;7.15;6.55;;;;;;;17.67;63.27;100305.97;4991747;28;20505;-73
2022/05/11 04:23:32;;;;;;;6.82;6.22;;;;;;;17.67;63.31;100310.66;4993445;28;20395;-73
2022/05/11 04:25:57;;;;;;;8.87;6.87;;;;;;;17.63;63.45;100315.91;4991948;28;20417;-73
2022/05/11 04:28:23;;;;;;;6.20;5.70;;;;;;;17.66;63.27;100312.56;4993269;28;20391;-73
2022/05/11 04:30:48;;;;;;;6.10;5.60;;;;;;;17.65;63.33;100318.34;4989724;28;20874;-73
2022/05/11 04:33:14;;;;;;;6.10;5.60;;;;;;;17.66;63.25;100318.03;4992737;28;20429;-73
2022/05/11 04:35:39;;;;;;;6.37;5.67;;;;;;;17.67;63.15;100314.22;4993087;28;20399;-73
2022/05/11 04:38:07;;;;;;;7.27;6.27;;;;;;;17.67;63.02;100316.13;4991844;28;20410;-74
2022/05/11 04:40:34;;;;;;;7.38;5.82;;;;;;;17.66;63.28;100317.22;4992365;28;20414;-73
2022/05/11 04:43:05;;;;;;;6.45;5.95;;;;;;;17.61;63.33;100323.63;4991124;28;20410;-73
2022/05/11 04:45:31;;;;;;;6.57;5.97;;;;;;;17.55;63.42;100311.06;4992195;28;20422;-73
2022/05/11 04:47:56;;;;;;;5.70;5.20;;;;;;;17.58;63.53;100322.25;4986846;28;20458;-74
2022/05/11 04:50:21;;;;;;;7.20;6.10;;;;;;;17.57;63.70;100320.66;4980733;28;20414;-74
2022/05/11 04:52:46;;;;;;;7.07;5.90;;;;;;;17.56;63.82;100318.19;4992550;28;20422;-73
2022/05/11 04:55:12;;;;;;;6.03;5.50;;;;;;;17.58;63.80;100322.25;4992489;28;20465;-74
2022/05/11 04:57:38;;;;;;;5.97;5.53;;;;;;;17.59;63.67;100320.34;4989140;28;20414;-73
2022/05/11 05:00:09;;;;;;;6.20;5.80;;;;;;;17.59;63.69;100320.34;4990819;28;20447;-73
2022/05/11 05:02:35;;;;;;;6.68;6.07;;;;;;;17.61;63.60;100320.88;4989151;28;20411;-73
2022/05/11 05:05:05;;;;;;;6.63;5.90;;;;;;;17.68;63.49;100326.00;4987955;28;20449;-74
2022/05/11 05:07:34;;;;;;;6.37;5.83;;;;;;;17.73;63.59;100318.50;4990977;28;20916;-73
2022/05/11 05:09:59;;;;;;;5.80;5.40;;;;;;;17.77;63.50;100313.25;4980051;28;20481;-74
2022/05/11 05:12:24;;;;;;;6.75;5.97;;;;;;;17.80;63.43;100318.13;4991614;28;20403;-73
2022/05/11 05:14:50;;;;;;;6.33;5.73;;;;;;;17.84;63.26;100314.53;4989512;28;20398;-74
2022/05/11 05:17:15;;;;;;;6.43;5.87;;;;;;;17.86;63.23;100315.03;4987680;28;20434;-74
2022/05/11 05:19:42;;;;;;;7.20;6.10;;;;;;;17.90;63.31;100318.81;4986023;28;20422;-74
2022/05/11 05:22:07;;;;;;;5.72;5.20;;;;;;;17.96;63.23;100325.03;4990722;28;20766;-74
2022/05/11 05:24:33;;;;;;;6.72;6.15;;;;;;;17.98;63.15;100320.88;4990934;28;20418;-74
2022/05/11 05:26:59;;;;;;;6.40;5.87;;;;;;;18.01;63.13;100322.22;4987877;28;20442;-74
2022/05/11 05:32:09;;;;;;;7.07;5.45;;;;;;;18.03;63.16;100320.00;4992333;28;20410;-74
2022/05/11 05:34:35;;;;;;;6.53;6.03;;;;;;;18.04;63.24;100325.19;4988654;28;20422;-74
2022/05/11 05:37:00;;;;;;;6.28;5.68;;;;;;;18.09;63.39;100330.59;4991262;28;20410;-74
2022/05/11 05:39:25;;;;;;;6.63;6.03;;;;;;;18.14;63.25;100322.25;4986179;28;20420;-73
2022/05/11 05:41:52;;;;;;;5.60;5.20;;;;;;;18.18;63.42;100329.94;4985679;28;20435;-75
2022/05/11 05:44:17;;;;;;;5.85;5.35;;;;;;;18.22;63.32;100333.69;4985397;28;20457;-74
2022/05/11 05:46:43;;;;;;;6.13;5.73;;;;;;;18.26;63.27;100334.72;4973348;28;20412;-74
2022/05/11 05:49:08;;;;;;;6.00;5.50;;;;;;;18.28;63.42;100330.56;4976869;28;20459;-74
2022/05/11 05:51:36;;;;;;;6.13;5.63;;;;;;;18.29;63.22;100328.63;4977395;28;20454;-74
2022/05/11 05:54:02;;;;;;;6.50;6.00;;;;;;;18.32;63.43;100331.59;4981598;28;20421;-74
2022/05/11 05:56:28;;;;;;;6.47;5.65;;;;;;;18.37;63.27;100331.53;4991100;28;20407;-74
2022/05/11 05:58:58;;;;;;;5.53;5.13;;;;;;;18.42;63.32;100333.34;4987486;28;20394;-74
2022/05/11 06:01:24;;;;;;;6.38;5.25;;;;;;;18.43;63.20;100333.06;4981359;28;20430;-74
2022/05/11 06:03:49;;;;;;;5.78;5.38;;;;;;;18.47;63.64;100331.34;4992026;28;20754;-74
2022/05/11 06:06:15;;;;;;;7.43;5.40;;;;;;;18.50;63.32;100330.78;4991899;28;20387;-74
2022/05/11 06:08:40;;;;;;;6.13;5.53;;;;;;;18.53;63.85;100327.44;4987067;28;20794;-74
2022/05/11 06:11:07;;;;;;;5.72;4.95;;;;;;;18.56;63.42;100332.31;4978536;28;20496;-74
2022/05/11 06:13:33;;;;;;;5.65;5.15;;;;;;;18.57;63.23;100331.19;4980134;28;20420;-74
2022/05/11 06:15:58;;;;;;;5.83;5.23;;;;;;;18.64;63.33;100328.06;4985005;28;20418;-73
2022/05/11 06:18:25;;;;;;;6.00;5.40;;;;;;;18.67;63.25;100333.75;4972511;28;20458;-74
2022/05/11 06:20:51;;;;;;;4.88;4.47;;;;;;;18.73;62.92;100323.53;4971927;28;21261;-74
2022/05/11 06:23:21;;;;;;;6.70;5.10;;;;;;;18.78;63.02;100317.09;4976847;28;20877;-73
2022/05/11 06:25:49;;;;;;;5.25;4.55;;;;;;;18.83;63.02;100330.75;4977453;28;21136;-73
2022/05/11 06:28:15;;;;;;;5.22;4.90;;;;;;;18.86;63.03;100321.91;4974974;28;20769;-73
2022/05/11 06:30:40;;;;;;;5.73;5.13;;;;;;;18.88;62.56;100322.41;4978359;28;20407;-74
2022/05/11 06:33:05;;;;;;;5.40;5.00;;;;;;;18.93;62.56;100330.56;4979044;28;20420;-73
2022/05/11 06:35:30;;;;;;;4.97;4.50;;;;;;;18.97;62.32;100326.09;4976461;28;20774;-74
2022/05/11 06:38:03;;;;;;;8.50;5.30;;;;;;;19.04;62.21;100332.00;4980668;28;21305;-73
2022/05/11 06:40:29;;;;;;;5.35;4.70;;;;;;;19.06;62.28;100324.28;4980517;28;20439;-73
2022/05/11 06:42:54;;;;;;;4.85;4.45;;;;;;;19.11;61.95;100319.50;4982269;28;20923;-73
2022/05/11 06:45:19;;;;;;;6.20;4.90;;;;;;;19.17;61.89;100325.69;4989751;28;20406;-73
2022/05/11 06:47:45;;;;;;;10.43;4.97;;;;;;;19.20;62.00;100318.78;4981354;28;20417;-74
2022/05/11 06:50:12;;;;;;;5.37;4.87;;;;;;;19.23;62.04;100319.00;4983149;28;20494;-74
2022/05/11 06:52:37;;;;;;;6.15;5.55;;;;;;;19.29;61.95;100312.28;4987432;28;20402;-73
2022/05/11 07:00:32;;;;;;;5.93;5.30;;;;;;;19.44;62.07;100313.91;4994824;28;20441;-73
2022/05/11 07:02:57;;;;;;;5.15;4.65;;;;;;;19.49;61.90;100316.56;4994892;28;20425;-73
2022/05/11 07:05:23;;;;;;;6.17;4.80;;;;;;;19.54;62.04;100305.47;4994320;28;20391;-73
2022/05/11 07:07:50;;;;;;;5.53;4.63;;;;;;;19.60;61.81;100306.97;4994939;28;20402;-73
2022/05/11 07:10:16;;;;;;;6.40;4.45;;;;;;;19.63;62.04;100304.41;4978708;28;20451;-74
2022/05/11 07:12:46;;;;;;;6.25;4.60;;;;;;;19.66;62.34;100308.47;4977339;28;20440;-73
2022/05/11 07:15:13;;;;;;;5.95;4.53;;;;;;;19.71;62.05;100304.81;4979653;28;20403;-74
2022/05/11 07:17:40;;;;;;;6.57;5.97;;;;;;;19.77;62.16;100300.81;4979266;28;21118;-74
2022/05/11 07:20:16;;;;;;;5.53;5.05;;;;;;;19.83;61.96;100296.84;4976979;28;20448;-73
2022/05/11 07:22:41;;;;;;;4.60;4.20;;;;;;;19.92;61.55;100290.28;4982231;28;20460;-73
2022/05/11 07:25:09;;;;;;;4.55;4.25;;;;;;;20.04;60.77;100300.75;4982825;28;20438;-73
2022/05/11 07:27:35;;;;;;;5.25;4.25;;;;;;;20.09;60.71;100295.09;4974269;28;20494;-74
2022/05/11 07:30:00;;;;;;;3.70;3.40;;;;;;;20.15;60.59;100296.63;4981022;28;20447;-74
2022/05/11 07:32:27;;;;;;;4.57;4.27;;;;;;;20.23;60.36;100295.88;4978242;28;20513;-73
2022/05/11 07:34:52;;;;;;;4.38;3.38;;;;;;;20.34;59.64;100299.22;4976461;28;20793;-74
2022/05/11 07:37:18;;;;;;;3.93;3.73;;;;;;;20.42;59.04;100285.50;4982264;28;20439;-73
2022/05/11 07:39:44;;;;;;;3.85;3.65;;;;;;;20.51;58.54;100294.66;4979907;28;20412;-73
2022/05/11 07:42:09;;;;;;;4.03;3.73;;;;;;;20.57;58.28;100293.41;4992529;28;20422;-74
2022/05/11 07:44:35;;;;;;;3.72;3.58;;;;;;;20.61;58.10;100294.38;4990786;28;20410;-74
2022/05/11 07:47:00;;;;;;;3.77;3.47;;;;;;;20.66;58.30;100296.19;4984602;28;20398;-73
2022/05/11 07:49:25;;;;;;;5.30;3.50;;;;;;;20.76;57.68;100293.16;4993540;28;20900;-74
2022/05/11 07:51:52;;;;;;;4.27;3.23;;;;;;;20.83;57.27;100292.72;4988624;28;20456;-73
2022/05/11 07:54:19;;;;;;;4.20;3.90;;;;;;;20.86;57.56;100287.38;4989813;28;20504;-73
2022/05/11 08:02:12;;;;;;;3.65;3.45;;;;;;;21.03;56.95;100278.38;4993702;28;20421;-73
2022/05/11 08:04:41;;;;;;;4.77;3.50;;;;;;;21.08;56.82;100284.56;4993769;28;20387;-73
2022/05/11 08:07:07;;;;;;;9.02;3.53;;;;;;;21.18;56.29;100277.97;4993044;28;20433;-73
2022/05/11 08:09:32;;;;;;;3.70;3.40;;;;;;;21.24;56.22;100278.66;4993307;28;20433;-73
2022/05/11 08:11:58;;;;;;;3.70;3.37;;;;;;;21.30;56.81;100278.19;4992244;28;20909;-72
2022/05/11 08:14:23;;;;;;;9.10;4.27;;;;;;;21.39;56.34;100270.75;4993576;28;20405;-72
2022/05/11 08:16:52;;;;;;;4.05;3.75;;;;;;;21.45;56.05;100277.72;4993417;28;20393;-73
2022/05/11 08:19:25;;;;;;;3.53;3.23;;;;;;;21.50;55.82;100269.31;4992317;28;20398;-73
2022/05/11 08:21:52;;;;;;;5.72;3.53;;;;;;;21.61;55.61;100267.03;4991338;28;20418;-73
2022/05/11 08:24:19;;;;;;;3.70;3.20;;;;;;;21.68;55.09;100268.19;4993307;28;20401;-73
2022/05/11 08:26:46;;;;;;;3.70;3.40;;;;;;;21.78;54.59;100271.75;4992670;28;20413;-73
2022/05/11 08:33:18;;;;;;;4.47;3.53;;;;;;;21.83;55.05;100264.16;4987115;28;20529;-73
2022/05/11 08:34:42;;;;;;;3.83;3.63;;;;;;;22.01;53.88;100259.44;4993020;28;20461;-73
2022/05/11 08:37:07;;;;;;;3.37;3.17;;;;;;;22.11;54.12;100259.13;4990736;28;20913;-73
2022/05/11 08:39:32;;;;;;;3.60;3.33;;;;;;;22.18;53.56;100256.69;4987798;28;20414;-72
2022/05/11 08:42:00;;;;;;;3.73;3.20;;;;;;;22.27;52.80;100260.25;4989488;28;20821;-73
2022/05/11 08:44:32;;;;;;;3.50;3.10;;;;;;;22.34;53.05;100257.78;4991876;28;20909;-73
2022/05/11 08:47:03;;;;;;;3.50;3.30;;;;;;;22.44;52.49;100259.41;4990925;28;20426;-73
2022/05/11 08:49:43;;;;;;;3.40;3.20;;;;;;;22.53;52.39;100252.72;4992654;28;20877;-73
2022/05/11 08:52:35;;;;;;;4.00;3.38;;;;;;;22.67;52.81;100249.78;4991715;28;20434;-73
2022/05/11 08:55:08;;;;;;;3.88;3.58;;;;;;;22.83;51.87;100261.09;4989303;28;20418;-72
2022/05/11 08:57:36;;;;;;;3.10;3.00;;;;;;;22.93;51.64;100255.19;4990848;28;20402;-72
2022/05/11 09:00:11;;;;;;;3.30;3.10;;;;;;;22.96;51.26;100255.34;4991893;28;20885;-73
2022/05/11 09:02:48;;;;;;;7.90;3.50;;;;;;;22.99;51.30;100260.19;4991475;28;20426;-72
2022/05/11 09:05:15;;;;;;;5.30;3.38;;;;;;;23.11;50.92;100257.56;4991383;28;20414;-72
2022/05/11 09:07:44;;;;;;;3.67;3.38;;;;;;;23.30;50.78;100257.13;4990704;28;20411;-72
2022/05/11 09:10:12;;;;;;;3.60;2.90;;;;;;;23.45;50.08;100247.44;4990691;28;20489;-73
2022/05/11 09:12:37;;;;;;;3.80;3.50;;;;;;;23.50;49.46;100247.28;4992495;28;20402;-73
2022/05/11 09:15:04;;;;;;;4.47;3.27;;;;;;;23.54;49.44;100251.00;4991617;28;20468;-72
2022/05/11 09:17:32;;;;;;;4.30;3.20;;;;;;;23.60;49.97;100244.94;4992382;28;20467;-72
2022/05/11 09:20:12;;;;;;;4.15;3.17;;;;;;;23.77;49.34;100246.75;4991931;28;20505;-73
2022/05/11 09:22:59;;;;;;;3.50;3.20;;;;;;;23.84;49.14;100240.69;4992698;28;20909;-72
2022/05/11 09:25:27;;;;;;;5.45;3.42;;;;;;;23.90;48.56;100237.34;4978663;28;20403;-72
2022/05/11 09:28:13;;;;;;;5.63;3.28;;;;;;;24.03;49.27;100243.75;4992467;28;20390;-72
2022/05/11 09:30:39;;;;;;;4.20;3.13;;;;;;;24.24;48.79;100239.81;4992338;28;20402;-72
2022/05/11 09:33:16;;;;;;;3.63;3.33;;;;;;;24.48;48.36;100233.53;4992147;28;20457;-74
2022/05/11 09:35:42;;;;;;;3.50;2.83;;;;;;;24.65;47.36;100232.53;4992296;28;20421;-72
2022/05/11 09:38:29;;;;;;;5.27;3.27;;;;;;;24.77;47.49;100219.50;4991476;28;20394;-73
2022/05/11 09:40:56;;;;;;;3.38;3.28;;;;;;;24.95;47.12;100225.69;4984780;28;20422;-72
2022/05/11 09:43:55;;;;;;;4.97;2.95;;;;;;;25.18;45.95;100226.81;4991445;28;20937;-72
2022/05/11 09:46:26;;;;;;;3.85;3.50;;;;;;;25.35;45.97;100230.50;4960696;28;20431;-71
2022/05/11 09:48:57;;;;;;;4.35;3.42;;;;;;;25.62;44.73;100224.25;4989964;28;20449;-71
2022/05/11 09:51:27;;;;;;;3.10;2.72;;;;;;;26.19;45.08;100212.81;4991173;28;20411;-72
2022/05/11 09:54:14;;;;;;;2.80;2.60;;;;;;;27.07;42.92;100215.13;4983885;28;20410;-72
2022/05/11 09:56:51;;;;;;;3.95;2.75;;;;;;;28.20;40.54;100220.44;4986778;28;20739;-72
2022/05/11 09:59:42;;;;;;;3.17;2.88;;;;;;;29.17;37.86;100221.75;4992087;28;20414;-72
2022/05/11 10:02:40;;;;;;;2.85;2.65;;;;;;;30.11;34.99;100203.91;4990569;28;21044;-72
2022/05/11 10:05:19;;;;;;;5.90;2.70;;;;;;;31.03;34.12;100206.81;4992679;28;20402;-72
2022/05/11 10:07:50;;;;;;;5.88;2.78;;;;;;;31.67;32.31;100205.25;4995191;28;20468;-73
2022/05/11 10:10:37;;;;;;;3.97;2.80;;;;;;;31.93;31.31;100204.16;4995849;28;20437;-72
2022/05/11 10:13:54;;;;;;;6.23;2.87;;;;;;;32.17;31.63;100204.28;4985522;28;20431;-71
2022/05/11 10:22:38;;;;;;;2.75;2.55;;;;;;;33.09;29.56;100206.38;4988274;28;20947;-72
2022/05/11 10:25:13;;;;;;;3.80;2.78;;;;;;;33.55;29.18;100195.88;4995437;28;20429;-74
2022/05/11 10:27:55;;;;;;;2.73;2.40;;;;;;;33.94;28.62;100195.75;4992769;28;20774;-72
2022/05/11 10:30:24;;;;;;;6.32;2.65;;;;;;;34.37;27.09;100193.53;4981844;28;20394;-73
2022/05/11 10:33:13;;;;;;;5.03;2.40;;;;;;;34.89;26.31;100192.34;4994544;28;20422;-73
2022/05/11 10:36:12;;;;;;;3.53;2.40;;;;;;;35.25;26.08;100194.84;4994409;28;20437;-73
2022/05/11 10:38:48;;;;;;;4.68;2.47;;;;;;;35.59;25.57;100192.09;4994673;28;20418;-70
2022/05/11 10:41:38;;;;;;;5.03;2.40;;;;;;;35.60;25.53;100190.88;4993684;28;20422;-70
2022/05/11 10:44:15;;;;;;;2.40;2.17;;;;;;;35.51;25.81;100187.72;4993632;28;20902;-71
2022/05/11 10:47:14;;;;;;;4.82;2.15;;;;;;;36.22;23.73;100182.03;4993612;28;20438;-72
2022/05/11 10:50:18;;;;;;;1.80;1.70;;;;;;;36.50;24.53;100177.94;4993624;28;20929;-70
2022/05/11 10:52:56;;;;;;;2.78;2.47;;;;;;;35.91;24.90;100176.38;4986546;28;20916;-71
2022/05/11 10:55:40;;;;;;;1.90;1.73;;;;;;;36.04;24.87;100179.41;4993905;28;20418;-72
2022/05/11 10:58:16;;;;;;;2.60;1.98;;;;;;;36.02;24.22;100161.31;4989993;28;20497;-71
2022/05/11 11:00:48;;;;;;;5.47;2.03;;;;;;;35.60;25.22;100159.88;5009753;28;20469;-71
2022/05/11 11:03:41;;;;;;;4.47;2.20;;;;;;;35.58;24.68;100162.25;4987358;28;20772;-72
2022/05/11 11:09:37;;;;;;;2.70;1.83;;;;;;;35.86;24.34;100153.50;4994011;28;20453;-72
2022/05/11 11:12:03;;;;;;;2.95;2.22;;;;;;;35.91;24.34;100158.63;4994680;28;20394;-72
2022/05/11 11:14:34;;;;;;;3.85;2.25;;;;;;;36.06;22.65;100150.78;4994532;28;20900;-72
2022/05/11 11:17:10;;;;;;;4.00;2.20;;;;;;;36.38;22.04;100153.97;4993450;28;20398;-73
2022/05/11 11:19:36;;;;;;;3.35;2.05;;;;;;;36.32;23.03;100138.75;4989939;28;20406;-73
2022/05/11 11:22:04;;;;;;;2.13;1.98;;;;;;;36.52;22.98;100150.09;4991492;28;20971;-71
2022/05/11 11:24:30;;;;;;;3.10;2.10;;;;;;;36.36;23.36;100145.91;4987035;28;20414;-71
2022/05/11 11:26:58;;;;;;;6.32;2.00;;;;;;;35.98;23.87;100138.00;4992420;28;20410;-72
2022/05/11 11:29:29;;;;;;;3.08;2.35;;;;;;;36.02;23.04;100141.56;4992489;28;20778;-71
2022/05/11 11:31:58;;;;;;;2.63;1.90;;;;;;;35.91;23.05;100136.09;4991010;28;20429;-71
2022/05/11 11:35:02;;;;;;;3.43;2.23;;;;;;;35.78;23.05;100140.69;4992652;28;20426;-72
2022/05/11 11:37:27;;;;;;;2.93;2.10;;;;;;;36.04;23.80;100137.09;4953084;28;20962;-71
2022/05/11 11:40:21;;;;;;;2.40;2.10;;;;;;;36.19;22.58;100123.63;4947198;29;20425;-73
2022/05/11 11:42:47;;;;;;;3.88;2.50;;;;;;;36.07;22.85;100129.84;4966634;28;20483;-72
2022/05/11 11:45:25;;;;;;;3.03;1.90;;;;;;;35.80;23.49;100119.31;4986276;28;20418;-72
2022/05/11 11:48:15;;;;;;;3.05;2.25;;;;;;;36.06;23.35;100105.66;4991305;28;20410;-73
2022/05/11 11:50:53;;;;;;;12.38;2.83;;;;;;;36.07;23.18;100116.53;4990258;28;20529;-73
2022/05/11 11:53:40;;;;;;;3.72;2.10;;;;;;;35.90;24.19;100112.72;4976035;28;20416;-72
2022/05/11 11:56:23;;;;;;;4.35;2.13;;;;;;;35.99;23.58;100100.13;4987557;28;20469;-73
2022/05/11 11:59:06;;;;;;;3.45;2.08;;;;;;;35.87;23.04;100112.75;4988268;28;20441;-72
2022/05/11 12:01:35;;;;;;;3.75;1.95;;;;;;;35.90;23.92;100104.25;4985916;28;20489;-72
2022/05/11 12:04:06;;;;;;;3.17;2.37;;;;;;;35.90;23.16;100106.28;4990124;28;20435;-73
2022/05/11 12:15:03;;;;;;;2.88;2.00;;;;;;;35.90;23.32;100092.97;4991066;28;20484;-73
2022/05/11 12:17:38;;;;;;;3.40;2.00;;;;;;;35.89;24.17;100082.13;4992842;28;20904;-73